Alma, Nebraska
Current Conditions -  °F | °C
As of 4:35 PM on Sunday 21 Dec 2014 (Local Time) from KHDE Reporting Station
Overcast Overcast  
Wind Chill: 40°   Ceiling: 9000
Heat Index: 40°   Visibility: 7mi
Dew Point: 36°   Wind: 3mph
Humidity: 86%   Direction: 160°SSE
Pressure: 29.59"   Gusts: NA
Location:  40.1°N, 99.36°W
Report Text: KHDE 212235Z AUTO 16003KT 7SM SCT065 SCT075 OVC090 04/02 A2959 RMK AO2 T00430022
Loading
Personal Weather Stations






























Interactive Weather Map New forecast layout! Learn more

10-Day Weather Forecast

Advertisements
Track Severe Weather on mobile